sensor_id;sensor_type;location;lat;lon;timestamp;pressure;altitude;pressure_sealevel;temperature
12854;BMP180;6495;51.808;7.478;2023-02-01T00:01:25;101256.00;;;5.40
12854;BMP180;6495;51.808;7.478;2023-02-01T00:03:55;101255.00;;;5.30
12854;BMP180;6495;51.808;7.478;2023-02-01T00:06:23;101255.00;;;5.40
12854;BMP180;6495;51.808;7.478;2023-02-01T00:08:53;101261.00;;;5.40
12854;BMP180;6495;51.808;7.478;2023-02-01T00:11:23;101254.00;;;5.40
12854;BMP180;6495;51.808;7.478;2023-02-01T00:13:52;101261.00;;;5.40
12854;BMP180;6495;51.808;7.478;2023-02-01T00:16:23;101256.00;;;5.30
12854;BMP180;6495;51.808;7.478;2023-02-01T00:18:59;101255.00;;;5.40
12854;BMP180;6495;51.808;7.478;2023-02-01T00:21:28;101253.00;;;5.40
12854;BMP180;6495;51.808;7.478;2023-02-01T00:23:58;101254.00;;;5.30
12854;BMP180;6495;51.808;7.478;2023-02-01T00:26:31;101259.00;;;5.40
12854;BMP180;6495;51.808;7.478;2023-02-01T00:29:00;101259.00;;;5.40
12854;BMP180;6495;51.808;7.478;2023-02-01T00:31:30;101242.00;;;5.40
12854;BMP180;6495;51.808;7.478;2023-02-01T00:34:00;101243.00;;;5.40
12854;BMP180;6495;51.808;7.478;2023-02-01T00:36:28;101242.00;;;5.40
12854;BMP180;6495;51.808;7.478;2023-02-01T00:38:56;101229.00;;;5.40
12854;BMP180;6495;51.808;7.478;2023-02-01T00:41:25;101233.00;;;5.40
12854;BMP180;6495;51.808;7.478;2023-02-01T00:43:54;101228.00;;;5.40
12854;BMP180;6495;51.808;7.478;2023-02-01T00:46:22;101231.00;;;5.40
12854;BMP180;6495;51.808;7.478;2023-02-01T00:48:51;101237.00;;;5.40
12854;BMP180;6495;51.808;7.478;2023-02-01T00:51:23;101238.00;;;5.40
12854;BMP180;6495;51.808;7.478;2023-02-01T00:53:52;101235.00;;;5.40
12854;BMP180;6495;51.808;7.478;2023-02-01T00:56:21;101240.00;;;5.40
12854;BMP180;6495;51.808;7.478;2023-02-01T00:58:50;101247.00;;;5.40
12854;BMP180;6495;51.808;7.478;2023-02-01T01:01:21;101239.00;;;5.50
12854;BMP180;6495;51.808;7.478;2023-02-01T01:03:52;101244.00;;;5.50
12854;BMP180;6495;51.808;7.478;2023-02-01T01:06:26;101233.00;;;5.50
12854;BMP180;6495;51.808;7.478;2023-02-01T01:08:56;101228.00;;;5.50
12854;BMP180;6495;51.808;7.478;2023-02-01T01:11:28;101225.00;;;5.40
12854;BMP180;6495;51.808;7.478;2023-02-01T01:13:58;101223.00;;;5.40
12854;BMP180;6495;51.808;7.478;2023-02-01T01:16:29;101223.00;;;5.40
12854;BMP180;6495;51.808;7.478;2023-02-01T01:18:58;101217.00;;;5.40
12854;BMP180;6495;51.808;7.478;2023-02-01T01:21:29;101224.00;;;5.40
12854;BMP180;6495;51.808;7.478;2023-02-01T01:23:58;101228.00;;;5.50
12854;BMP180;6495;51.808;7.478;2023-02-01T01:26:29;101230.00;;;5.50
12854;BMP180;6495;51.808;7.478;2023-02-01T01:28:58;101230.00;;;5.50
12854;BMP180;6495;51.808;7.478;2023-02-01T01:31:28;101235.00;;;5.40
12854;BMP180;6495;51.808;7.478;2023-02-01T01:33:59;101227.00;;;5.40
12854;BMP180;6495;51.808;7.478;2023-02-01T01:36:29;101211.00;;;5.40
12854;BMP180;6495;51.808;7.478;2023-02-01T01:38:58;101231.00;;;5.40
12854;BMP180;6495;51.808;7.478;2023-02-01T01:41:30;101222.00;;;5.40
12854;BMP180;6495;51.808;7.478;2023-02-01T01:47:15;101211.00;;;5.40
12854;BMP180;6495;51.808;7.478;2023-02-01T01:49:44;101218.00;;;5.40
12854;BMP180;6495;51.808;7.478;2023-02-01T01:52:14;101213.00;;;5.40
12854;BMP180;6495;51.808;7.478;2023-02-01T01:54:47;101206.00;;;5.40
12854;BMP180;6495;51.808;7.478;2023-02-01T01:57:21;101210.00;;;5.40
12854;BMP180;6495;51.808;7.478;2023-02-01T02:00:00;101210.00;;;5.40
12854;BMP180;6495;51.808;7.478;2023-02-01T02:02:43;101206.00;;;5.40
12854;BMP180;6495;51.808;7.478;2023-02-01T02:05:15;101193.00;;;5.40
12854;BMP180;6495;51.808;7.478;2023-02-01T02:07:49;101188.00;;;5.40
12854;BMP180;6495;51.808;7.478;2023-02-01T02:10:19;101194.00;;;5.40
12854;BMP180;6495;51.808;7.478;2023-02-01T02:12:48;101190.00;;;5.40
12854;BMP180;6495;51.808;7.478;2023-02-01T02:15:17;101186.00;;;5.40
12854;BMP180;6495;51.808;7.478;2023-02-01T02:17:56;101190.00;;;5.40
12854;BMP180;6495;51.808;7.478;2023-02-01T02:24:15;101182.00;;;5.40
12854;BMP180;6495;51.808;7.478;2023-02-01T02:27:10;101178.00;;;5.40
12854;BMP180;6495;51.808;7.478;2023-02-01T02:30:34;101167.00;;;5.40
12854;BMP180;6495;51.808;7.478;2023-02-01T02:34:00;101159.00;;;5.40
12854;BMP180;6495;51.808;7.478;2023-02-01T02:36:40;101166.00;;;5.40
12854;BMP180;6495;51.808;7.478;2023-02-01T02:39:23;101150.00;;;5.40
12854;BMP180;6495;51.808;7.478;2023-02-01T02:42:00;101149.00;;;5.40
12854;BMP180;6495;51.808;7.478;2023-02-01T02:44:54;101148.00;;;5.40
12854;BMP180;6495;51.808;7.478;2023-02-01T02:47:52;101135.00;;;5.40
12854;BMP180;6495;51.808;7.478;2023-02-01T02:50:29;101127.00;;;5.40
12854;BMP180;6495;51.808;7.478;2023-02-01T02:53:25;101131.00;;;5.40
12854;BMP180;6495;51.808;7.478;2023-02-01T02:56:15;101128.00;;;5.40
12854;BMP180;6495;51.808;7.478;2023-02-01T02:59:03;101120.00;;;5.30
12854;BMP180;6495;51.808;7.478;2023-02-01T03:01:49;101140.00;;;5.40
12854;BMP180;6495;51.808;7.478;2023-02-01T03:04:35;101134.00;;;5.40
12854;BMP180;6495;51.808;7.478;2023-02-01T03:07:42;101134.00;;;5.40
12854;BMP180;6495;51.808;7.478;2023-02-01T03:10:07;101115.00;;;5.40
12854;BMP180;6495;51.808;7.478;2023-02-01T03:12:40;101129.00;;;5.40
12854;BMP180;6495;51.808;7.478;2023-02-01T03:15:32;101122.00;;;5.50
12854;BMP180;6495;51.808;7.478;2023-02-01T03:18:07;101116.00;;;5.40
12854;BMP180;6495;51.808;7.478;2023-02-01T03:20:43;101125.00;;;5.40
12854;BMP180;6495;51.808;7.478;2023-02-01T03:23:18;101107.00;;;5.50
12854;BMP180;6495;51.808;7.478;2023-02-01T03:25:51;101101.00;;;5.50
12854;BMP180;6495;51.808;7.478;2023-02-01T03:28:23;101101.00;;;5.50
12854;BMP180;6495;51.808;7.478;2023-02-01T03:30:54;101095.00;;;5.40
12854;BMP180;6495;51.808;7.478;2023-02-01T03:33:25;101116.00;;;5.40
12854;BMP180;6495;51.808;7.478;2023-02-01T03:36:09;101109.00;;;5.50
12854;BMP180;6495;51.808;7.478;2023-02-01T03:38:52;101087.00;;;5.50
12854;BMP180;6495;51.808;7.478;2023-02-01T03:41:32;101092.00;;;5.50
12854;BMP180;6495;51.808;7.478;2023-02-01T03:44:12;101108.00;;;5.50
12854;BMP180;6495;51.808;7.478;2023-02-01T03:46:47;101095.00;;;5.50
12854;BMP180;6495;51.808;7.478;2023-02-01T03:49:24;101088.00;;;5.50
12854;BMP180;6495;51.808;7.478;2023-02-01T03:51:56;101094.00;;;5.50
12854;BMP180;6495;51.808;7.478;2023-02-01T03:54:28;101099.00;;;5.50
12854;BMP180;6495;51.808;7.478;2023-02-01T03:57:05;101085.00;;;5.50
12854;BMP180;6495;51.808;7.478;2023-02-01T03:59:39;101086.00;;;5.50
12854;BMP180;6495;51.808;7.478;2023-02-01T04:02:08;101095.00;;;5.50
12854;BMP180;6495;51.808;7.478;2023-02-01T04:04:37;101088.00;;;5.50
12854;BMP180;6495;51.808;7.478;2023-02-01T04:07:06;101091.00;;;5.50
12854;BMP180;6495;51.808;7.478;2023-02-01T04:09:35;101096.00;;;5.50
12854;BMP180;6495;51.808;7.478;2023-02-01T04:12:04;101099.00;;;5.50
12854;BMP180;6495;51.808;7.478;2023-02-01T04:14:32;101085.00;;;5.50
12854;BMP180;6495;51.808;7.478;2023-02-01T04:17:00;101083.00;;;5.50
12854;BMP180;6495;51.808;7.478;2023-02-01T04:19:28;101088.00;;;5.50
12854;BMP180;6495;51.808;7.478;2023-02-01T04:21:57;101082.00;;;5.50
12854;BMP180;6495;51.808;7.478;2023-02-01T04:24:25;101065.00;;;5.50
12854;BMP180;6495;51.808;7.478;2023-02-01T04:26:55;101077.00;;;5.50
12854;BMP180;6495;51.808;7.478;2023-02-01T04:29:23;101083.00;;;5.50
12854;BMP180;6495;51.808;7.478;2023-02-01T04:31:51;101073.00;;;5.50
12854;BMP180;6495;51.808;7.478;2023-02-01T04:34:19;101057.00;;;5.50
12854;BMP180;6495;51.808;7.478;2023-02-01T04:36:49;101067.00;;;5.50
12854;BMP180;6495;51.808;7.478;2023-02-01T04:39:17;101065.00;;;5.50
12854;BMP180;6495;51.808;7.478;2023-02-01T04:41:45;101066.00;;;5.50
12854;BMP180;6495;51.808;7.478;2023-02-01T04:44:17;101076.00;;;5.50
12854;BMP180;6495;51.808;7.478;2023-02-01T04:46:47;101069.00;;;5.50
12854;BMP180;6495;51.808;7.478;2023-02-01T04:49:15;101061.00;;;5.50
12854;BMP180;6495;51.808;7.478;2023-02-01T04:51:44;101075.00;;;5.60
12854;BMP180;6495;51.808;7.478;2023-02-01T04:54:12;101052.00;;;5.50
12854;BMP180;6495;51.808;7.478;2023-02-01T04:56:40;101060.00;;;5.50
12854;BMP180;6495;51.808;7.478;2023-02-01T04:59:10;101067.00;;;5.50
12854;BMP180;6495;51.808;7.478;2023-02-01T05:01:39;101072.00;;;5.50
12854;BMP180;6495;51.808;7.478;2023-02-01T05:04:09;101072.00;;;5.50
12854;BMP180;6495;51.808;7.478;2023-02-01T05:06:37;101073.00;;;5.50
12854;BMP180;6495;51.808;7.478;2023-02-01T05:09:05;101057.00;;;5.50
12854;BMP180;6495;51.808;7.478;2023-02-01T05:11:33;101067.00;;;5.50
12854;BMP180;6495;51.808;7.478;2023-02-01T05:14:19;101065.00;;;5.50
12854;BMP180;6495;51.808;7.478;2023-02-01T05:16:49;101051.00;;;5.50
12854;BMP180;6495;51.808;7.478;2023-02-01T05:19:17;101075.00;;;5.50
12854;BMP180;6495;51.808;7.478;2023-02-01T05:21:46;101066.00;;;5.50
12854;BMP180;6495;51.808;7.478;2023-02-01T05:24:14;101068.00;;;5.40
12854;BMP180;6495;51.808;7.478;2023-02-01T05:26:47;101072.00;;;5.40
12854;BMP180;6495;51.808;7.478;2023-02-01T05:29:17;101054.00;;;5.50
12854;BMP180;6495;51.808;7.478;2023-02-01T05:31:45;101063.00;;;5.50
12854;BMP180;6495;51.808;7.478;2023-02-01T05:34:17;101066.00;;;5.50
12854;BMP180;6495;51.808;7.478;2023-02-01T05:36:45;101069.00;;;5.50
12854;BMP180;6495;51.808;7.478;2023-02-01T05:39:13;101049.00;;;5.50
12854;BMP180;6495;51.808;7.478;2023-02-01T05:41:41;101045.00;;;5.40
12854;BMP180;6495;51.808;7.478;2023-02-01T05:44:10;101040.00;;;5.40
12854;BMP180;6495;51.808;7.478;2023-02-01T05:46:39;101032.00;;;5.40
12854;BMP180;6495;51.808;7.478;2023-02-01T05:49:07;101043.00;;;5.40
12854;BMP180;6495;51.808;7.478;2023-02-01T05:51:37;101036.00;;;5.40
12854;BMP180;6495;51.808;7.478;2023-02-01T05:54:05;101034.00;;;5.40
12854;BMP180;6495;51.808;7.478;2023-02-01T05:56:33;101047.00;;;5.40
12854;BMP180;6495;51.808;7.478;2023-02-01T05:59:02;101031.00;;;5.40
12854;BMP180;6495;51.808;7.478;2023-02-01T06:01:30;101035.00;;;5.50
12854;BMP180;6495;51.808;7.478;2023-02-01T06:03:58;101056.00;;;5.50
12854;BMP180;6495;51.808;7.478;2023-02-01T06:06:27;101031.00;;;5.50
12854;BMP180;6495;51.808;7.478;2023-02-01T06:08:56;101025.00;;;5.50
12854;BMP180;6495;51.808;7.478;2023-02-01T06:11:25;101036.00;;;5.50
12854;BMP180;6495;51.808;7.478;2023-02-01T06:13:59;101051.00;;;5.50
12854;BMP180;6495;51.808;7.478;2023-02-01T06:16:28;101051.00;;;5.50
12854;BMP180;6495;51.808;7.478;2023-02-01T06:18:56;101053.00;;;5.50
12854;BMP180;6495;51.808;7.478;2023-02-01T06:21:25;101050.00;;;5.50
12854;BMP180;6495;51.808;7.478;2023-02-01T06:23:54;101055.00;;;5.50
12854;BMP180;6495;51.808;7.478;2023-02-01T06:26:25;101064.00;;;5.40
12854;BMP180;6495;51.808;7.478;2023-02-01T06:28:56;101059.00;;;5.40
12854;BMP180;6495;51.808;7.478;2023-02-01T06:31:25;101071.00;;;5.40
12854;BMP180;6495;51.808;7.478;2023-02-01T06:33:53;101068.00;;;5.40
12854;BMP180;6495;51.808;7.478;2023-02-01T06:36:22;101070.00;;;5.40
12854;BMP180;6495;51.808;7.478;2023-02-01T06:38:50;101081.00;;;5.40
12854;BMP180;6495;51.808;7.478;2023-02-01T06:41:18;101072.00;;;5.40
12854;BMP180;6495;51.808;7.478;2023-02-01T06:43:49;101078.00;;;5.40
12854;BMP180;6495;51.808;7.478;2023-02-01T06:46:17;101083.00;;;5.50
12854;BMP180;6495;51.808;7.478;2023-02-01T06:48:45;101076.00;;;5.50
12854;BMP180;6495;51.808;7.478;2023-02-01T06:51:23;101072.00;;;5.50
12854;BMP180;6495;51.808;7.478;2023-02-01T06:53:52;101085.00;;;5.50
12854;BMP180;6495;51.808;7.478;2023-02-01T06:56:21;101077.00;;;5.50
12854;BMP180;6495;51.808;7.478;2023-02-01T06:58:50;101073.00;;;5.50
12854;BMP180;6495;51.808;7.478;2023-02-01T07:01:19;101085.00;;;5.50
12854;BMP180;6495;51.808;7.478;2023-02-01T07:03:51;101073.00;;;5.50
12854;BMP180;6495;51.808;7.478;2023-02-01T07:06:23;101084.00;;;5.50
12854;BMP180;6495;51.808;7.478;2023-02-01T07:08:52;101092.00;;;5.50
12854;BMP180;6495;51.808;7.478;2023-02-01T07:11:23;101102.00;;;5.50
12854;BMP180;6495;51.808;7.478;2023-02-01T07:13:58;101101.00;;;5.50
12854;BMP180;6495;51.808;7.478;2023-02-01T07:16:27;101105.00;;;5.50
12854;BMP180;6495;51.808;7.478;2023-02-01T07:18:58;101108.00;;;5.60
12854;BMP180;6495;51.808;7.478;2023-02-01T07:21:28;101112.00;;;5.60
12854;BMP180;6495;51.808;7.478;2023-02-01T07:24:01;101116.00;;;5.60
12854;BMP180;6495;51.808;7.478;2023-02-01T07:26:29;101114.00;;;5.60
12854;BMP180;6495;51.808;7.478;2023-02-01T07:29:01;101119.00;;;5.60
12854;BMP180;6495;51.808;7.478;2023-02-01T07:31:29;101118.00;;;5.60
12854;BMP180;6495;51.808;7.478;2023-02-01T07:34:00;101111.00;;;5.60
12854;BMP180;6495;51.808;7.478;2023-02-01T07:36:34;101112.00;;;5.70
12854;BMP180;6495;51.808;7.478;2023-02-01T07:39:03;101106.00;;;5.70
12854;BMP180;6495;51.808;7.478;2023-02-01T07:41:32;101116.00;;;5.60
12854;BMP180;6495;51.808;7.478;2023-02-01T07:44:02;101106.00;;;5.70
12854;BMP180;6495;51.808;7.478;2023-02-01T07:46:32;101118.00;;;5.60
12854;BMP180;6495;51.808;7.478;2023-02-01T07:49:01;101125.00;;;5.70
12854;BMP180;6495;51.808;7.478;2023-02-01T07:51:30;101126.00;;;5.70
12854;BMP180;6495;51.808;7.478;2023-02-01T07:53:59;101129.00;;;5.70
12854;BMP180;6495;51.808;7.478;2023-02-01T07:56:27;101128.00;;;5.70
12854;BMP180;6495;51.808;7.478;2023-02-01T07:58:56;101124.00;;;5.70
12854;BMP180;6495;51.808;7.478;2023-02-01T08:01:29;101137.00;;;5.70
12854;BMP180;6495;51.808;7.478;2023-02-01T08:03:58;101129.00;;;5.70
12854;BMP180;6495;51.808;7.478;2023-02-01T08:06:32;101141.00;;;5.80
12854;BMP180;6495;51.808;7.478;2023-02-01T08:09:04;101140.00;;;5.80
12854;BMP180;6495;51.808;7.478;2023-02-01T08:11:34;101135.00;;;5.80
12854;BMP180;6495;51.808;7.478;2023-02-01T08:14:05;101133.00;;;5.80
12854;BMP180;6495;51.808;7.478;2023-02-01T08:16:35;101133.00;;;5.80
12854;BMP180;6495;51.808;7.478;2023-02-01T08:19:06;101141.00;;;5.80
12854;BMP180;6495;51.808;7.478;2023-02-01T08:21:37;101135.00;;;5.80
12854;BMP180;6495;51.808;7.478;2023-02-01T08:24:08;101139.00;;;5.80
12854;BMP180;6495;51.808;7.478;2023-02-01T08:26:40;101148.00;;;5.90
12854;BMP180;6495;51.808;7.478;2023-02-01T08:29:09;101156.00;;;5.90
12854;BMP180;6495;51.808;7.478;2023-02-01T08:31:41;101143.00;;;5.90
12854;BMP180;6495;51.808;7.478;2023-02-01T08:34:10;101153.00;;;5.90
12854;BMP180;6495;51.808;7.478;2023-02-01T08:36:41;101144.00;;;5.90
12854;BMP180;6495;51.808;7.478;2023-02-01T08:39:10;101144.00;;;5.90
12854;BMP180;6495;51.808;7.478;2023-02-01T08:41:39;101150.00;;;5.90
12854;BMP180;6495;51.808;7.478;2023-02-01T08:44:11;101151.00;;;5.90
12854;BMP180;6495;51.808;7.478;2023-02-01T08:46:41;101146.00;;;5.90
12854;BMP180;6495;51.808;7.478;2023-02-01T08:49:11;101148.00;;;6.00
12854;BMP180;6495;51.808;7.478;2023-02-01T08:51:42;101155.00;;;5.90
12854;BMP180;6495;51.808;7.478;2023-02-01T08:54:10;101139.00;;;6.00
12854;BMP180;6495;51.808;7.478;2023-02-01T08:56:39;101148.00;;;6.00
12854;BMP180;6495;51.808;7.478;2023-02-01T08:59:07;101146.00;;;6.00
12854;BMP180;6495;51.808;7.478;2023-02-01T09:01:36;101147.00;;;6.00
12854;BMP180;6495;51.808;7.478;2023-02-01T09:04:06;101141.00;;;6.00
12854;BMP180;6495;51.808;7.478;2023-02-01T09:06:35;101147.00;;;6.00
12854;BMP180;6495;51.808;7.478;2023-02-01T09:09:03;101145.00;;;6.10
12854;BMP180;6495;51.808;7.478;2023-02-01T09:11:32;101140.00;;;6.10
12854;BMP180;6495;51.808;7.478;2023-02-01T09:14:05;101132.00;;;6.10
12854;BMP180;6495;51.808;7.478;2023-02-01T09:17:04;101121.00;;;6.10
12854;BMP180;6495;51.808;7.478;2023-02-01T09:19:46;101121.00;;;6.20
12854;BMP180;6495;51.808;7.478;2023-02-01T09:22:15;101131.00;;;6.20
12854;BMP180;6495;51.808;7.478;2023-02-01T09:24:43;101114.00;;;6.20
12854;BMP180;6495;51.808;7.478;2023-02-01T09:27:12;101114.00;;;6.20
12854;BMP180;6495;51.808;7.478;2023-02-01T09:29:42;101117.00;;;6.20
12854;BMP180;6495;51.808;7.478;2023-02-01T09:32:11;101120.00;;;6.30
12854;BMP180;6495;51.808;7.478;2023-02-01T09:34:39;101122.00;;;6.40
12854;BMP180;6495;51.808;7.478;2023-02-01T09:37:09;101110.00;;;6.40
12854;BMP180;6495;51.808;7.478;2023-02-01T09:39:37;101105.00;;;6.40
12854;BMP180;6495;51.808;7.478;2023-02-01T09:42:20;101118.00;;;6.50
12854;BMP180;6495;51.808;7.478;2023-02-01T09:45:06;101110.00;;;6.50
12854;BMP180;6495;51.808;7.478;2023-02-01T09:47:43;101107.00;;;6.60
12854;BMP180;6495;51.808;7.478;2023-02-01T09:50:18;101117.00;;;6.60
12854;BMP180;6495;51.808;7.478;2023-02-01T09:52:55;101113.00;;;6.70
12854;BMP180;6495;51.808;7.478;2023-02-01T09:55:36;101107.00;;;6.70
12854;BMP180;6495;51.808;7.478;2023-02-01T09:58:12;101106.00;;;6.70
12854;BMP180;6495;51.808;7.478;2023-02-01T10:00:51;101101.00;;;6.80
12854;BMP180;6495;51.808;7.478;2023-02-01T10:03:20;101108.00;;;6.70
12854;BMP180;6495;51.808;7.478;2023-02-01T10:06:22;101099.00;;;6.80
12854;BMP180;6495;51.808;7.478;2023-02-01T10:09:33;101102.00;;;6.80
12854;BMP180;6495;51.808;7.478;2023-02-01T10:12:49;101108.00;;;6.80
12854;BMP180;6495;51.808;7.478;2023-02-01T10:15:33;101114.00;;;6.80
12854;BMP180;6495;51.808;7.478;2023-02-01T10:18:40;101116.00;;;6.80
12854;BMP180;6495;51.808;7.478;2023-02-01T10:21:23;101111.00;;;6.80
12854;BMP180;6495;51.808;7.478;2023-02-01T10:24:28;101119.00;;;6.80
12854;BMP180;6495;51.808;7.478;2023-02-01T10:27:13;101118.00;;;6.80
12854;BMP180;6495;51.808;7.478;2023-02-01T10:29:45;101127.00;;;6.80
12854;BMP180;6495;51.808;7.478;2023-02-01T10:32:18;101126.00;;;6.80
12854;BMP180;6495;51.808;7.478;2023-02-01T10:34:55;101136.00;;;6.80
12854;BMP180;6495;51.808;7.478;2023-02-01T10:37:28;101125.00;;;6.80
12854;BMP180;6495;51.808;7.478;2023-02-01T10:40:03;101118.00;;;6.80
12854;BMP180;6495;51.808;7.478;2023-02-01T10:42:38;101114.00;;;6.80
12854;BMP180;6495;51.808;7.478;2023-02-01T10:45:16;101123.00;;;6.80
12854;BMP180;6495;51.808;7.478;2023-02-01T10:47:47;101125.00;;;6.70
12854;BMP180;6495;51.808;7.478;2023-02-01T10:50:29;101119.00;;;6.70
12854;BMP180;6495;51.808;7.478;2023-02-01T10:53:06;101124.00;;;6.70
12854;BMP180;6495;51.808;7.478;2023-02-01T10:55:46;101121.00;;;6.70
12854;BMP180;6495;51.808;7.478;2023-02-01T10:58:19;101107.00;;;6.80
12854;BMP180;6495;51.808;7.478;2023-02-01T11:00:53;101114.00;;;6.80
12854;BMP180;6495;51.808;7.478;2023-02-01T11:03:34;101103.00;;;6.80
12854;BMP180;6495;51.808;7.478;2023-02-01T11:06:13;101095.00;;;6.80
12854;BMP180;6495;51.808;7.478;2023-02-01T11:08:45;101082.00;;;6.80
12854;BMP180;6495;51.808;7.478;2023-02-01T11:11:15;101083.00;;;6.80
12854;BMP180;6495;51.808;7.478;2023-02-01T11:13:54;101077.00;;;6.80
12854;BMP180;6495;51.808;7.478;2023-02-01T11:16:33;101066.00;;;6.80
12854;BMP180;6495;51.808;7.478;2023-02-01T11:19:02;101062.00;;;6.80
12854;BMP180;6495;51.808;7.478;2023-02-01T11:21:31;101066.00;;;6.80
12854;BMP180;6495;51.808;7.478;2023-02-01T11:24:03;101065.00;;;6.80
12854;BMP180;6495;51.808;7.478;2023-02-01T11:26:39;101064.00;;;6.90
12854;BMP180;6495;51.808;7.478;2023-02-01T11:29:13;101059.00;;;6.90
12854;BMP180;6495;51.808;7.478;2023-02-01T11:31:45;101064.00;;;6.90
12854;BMP180;6495;51.808;7.478;2023-02-01T11:34:18;101056.00;;;6.90
12854;BMP180;6495;51.808;7.478;2023-02-01T11:36:50;101051.00;;;6.90
12854;BMP180;6495;51.808;7.478;2023-02-01T11:39:26;101036.00;;;6.90
12854;BMP180;6495;51.808;7.478;2023-02-01T11:42:04;101038.00;;;6.90
12854;BMP180;6495;51.808;7.478;2023-02-01T11:44:36;101027.00;;;6.90
12854;BMP180;6495;51.808;7.478;2023-02-01T11:47:26;101017.00;;;6.90
12854;BMP180;6495;51.808;7.478;2023-02-01T11:49:57;101015.00;;;6.90
12854;BMP180;6495;51.808;7.478;2023-02-01T11:52:45;101010.00;;;6.90
12854;BMP180;6495;51.808;7.478;2023-02-01T11:55:39;101021.00;;;6.80
12854;BMP180;6495;51.808;7.478;2023-02-01T11:58:41;101026.00;;;6.80
12854;BMP180;6495;51.808;7.478;2023-02-01T12:01:37;101019.00;;;6.80
12854;BMP180;6495;51.808;7.478;2023-02-01T12:04:45;101021.00;;;6.70
12854;BMP180;6495;51.808;7.478;2023-02-01T12:07:24;101020.00;;;6.70
12854;BMP180;6495;51.808;7.478;2023-02-01T12:10:07;101004.00;;;6.70
12854;BMP180;6495;51.808;7.478;2023-02-01T12:12:51;101016.00;;;6.60
12854;BMP180;6495;51.808;7.478;2023-02-01T12:15:38;101004.00;;;6.60
12854;BMP180;6495;51.808;7.478;2023-02-01T12:18:49;101022.00;;;6.60
12854;BMP180;6495;51.808;7.478;2023-02-01T12:21:46;101011.00;;;6.50
12854;BMP180;6495;51.808;7.478;2023-02-01T12:24:55;101011.00;;;6.50
12854;BMP180;6495;51.808;7.478;2023-02-01T12:31:21;101012.00;;;6.50
12854;BMP180;6495;51.808;7.478;2023-02-01T12:34:18;100994.00;;;6.50
12854;BMP180;6495;51.808;7.478;2023-02-01T12:37:01;100989.00;;;6.50
12854;BMP180;6495;51.808;7.478;2023-02-01T12:39:40;101013.00;;;6.40
12854;BMP180;6495;51.808;7.478;2023-02-01T12:42:18;101000.00;;;6.50
12854;BMP180;6495;51.808;7.478;2023-02-01T12:44:54;100994.00;;;6.50
12854;BMP180;6495;51.808;7.478;2023-02-01T12:47:35;101002.00;;;6.50
12854;BMP180;6495;51.808;7.478;2023-02-01T12:50:14;100988.00;;;6.50
12854;BMP180;6495;51.808;7.478;2023-02-01T12:52:51;100983.00;;;6.50
12854;BMP180;6495;51.808;7.478;2023-02-01T12:55:24;100971.00;;;6.50
12854;BMP180;6495;51.808;7.478;2023-02-01T12:58:03;100969.00;;;6.40
12854;BMP180;6495;51.808;7.478;2023-02-01T13:00:40;100973.00;;;6.40
12854;BMP180;6495;51.808;7.478;2023-02-01T13:03:25;100974.00;;;6.40
12854;BMP180;6495;51.808;7.478;2023-02-01T13:06:03;100977.00;;;6.40
12854;BMP180;6495;51.808;7.478;2023-02-01T13:08:43;100974.00;;;6.40
12854;BMP180;6495;51.808;7.478;2023-02-01T13:11:19;100967.00;;;6.40
12854;BMP180;6495;51.808;7.478;2023-02-01T13:14:00;100973.00;;;6.40
12854;BMP180;6495;51.808;7.478;2023-02-01T13:16:32;100956.00;;;6.40
12854;BMP180;6495;51.808;7.478;2023-02-01T13:19:12;100957.00;;;6.40
12854;BMP180;6495;51.808;7.478;2023-02-01T13:21:48;100962.00;;;6.40
12854;BMP180;6495;51.808;7.478;2023-02-01T13:24:30;100957.00;;;6.40
12854;BMP180;6495;51.808;7.478;2023-02-01T13:27:01;100964.00;;;6.40
12854;BMP180;6495;51.808;7.478;2023-02-01T13:29:31;100960.00;;;6.50
12854;BMP180;6495;51.808;7.478;2023-02-01T13:36:06;100961.00;;;6.50
12854;BMP180;6495;51.808;7.478;2023-02-01T13:41:57;100954.00;;;6.60
12854;BMP180;6495;51.808;7.478;2023-02-01T13:44:31;100964.00;;;6.60
12854;BMP180;6495;51.808;7.478;2023-02-01T13:47:11;100966.00;;;6.60
12854;BMP180;6495;51.808;7.478;2023-02-01T13:49:41;100958.00;;;6.60
12854;BMP180;6495;51.808;7.478;2023-02-01T13:52:27;100964.00;;;6.70
12854;BMP180;6495;51.808;7.478;2023-02-01T13:55:27;100961.00;;;6.70
12854;BMP180;6495;51.808;7.478;2023-02-01T13:58:18;100958.00;;;6.80
12854;BMP180;6495;51.808;7.478;2023-02-01T14:00:48;100965.00;;;6.80
12854;BMP180;6495;51.808;7.478;2023-02-01T14:03:21;100974.00;;;6.80
12854;BMP180;6495;51.808;7.478;2023-02-01T14:09:21;100983.00;;;6.90
12854;BMP180;6495;51.808;7.478;2023-02-01T14:12:46;100975.00;;;6.90
12854;BMP180;6495;51.808;7.478;2023-02-01T14:15:27;100981.00;;;6.90
12854;BMP180;6495;51.808;7.478;2023-02-01T14:17:55;100980.00;;;6.80
12854;BMP180;6495;51.808;7.478;2023-02-01T14:20:48;100987.00;;;6.90
12854;BMP180;6495;51.808;7.478;2023-02-01T14:23:28;100987.00;;;6.80
12854;BMP180;6495;51.808;7.478;2023-02-01T14:26:18;100995.00;;;6.80
12854;BMP180;6495;51.808;7.478;2023-02-01T14:29:01;100999.00;;;6.80
12854;BMP180;6495;51.808;7.478;2023-02-01T14:31:41;100992.00;;;6.80
12854;BMP180;6495;51.808;7.478;2023-02-01T14:34:20;101000.00;;;6.80
12854;BMP180;6495;51.808;7.478;2023-02-01T14:36:55;101001.00;;;6.80
12854;BMP180;6495;51.808;7.478;2023-02-01T14:39:32;100994.00;;;6.80
12854;BMP180;6495;51.808;7.478;2023-02-01T14:42:13;101018.00;;;6.70
12854;BMP180;6495;51.808;7.478;2023-02-01T14:44:44;101006.00;;;6.70
12854;BMP180;6495;51.808;7.478;2023-02-01T14:47:32;101020.00;;;6.80
12854;BMP180;6495;51.808;7.478;2023-02-01T14:50:31;101022.00;;;6.70
12854;BMP180;6495;51.808;7.478;2023-02-01T14:53:20;101015.00;;;6.70
12854;BMP180;6495;51.808;7.478;2023-02-01T14:55:54;101024.00;;;6.70
12854;BMP180;6495;51.808;7.478;2023-02-01T14:58:44;101032.00;;;6.70
12854;BMP180;6495;51.808;7.478;2023-02-01T15:01:23;101022.00;;;6.70
12854;BMP180;6495;51.808;7.478;2023-02-01T15:04:01;101014.00;;;6.70
12854;BMP180;6495;51.808;7.478;2023-02-01T15:06:36;101023.00;;;6.70
12854;BMP180;6495;51.808;7.478;2023-02-01T15:09:11;101030.00;;;6.70
12854;BMP180;6495;51.808;7.478;2023-02-01T15:12:02;101014.00;;;6.80
12854;BMP180;6495;51.808;7.478;2023-02-01T15:14:35;101011.00;;;6.70
12854;BMP180;6495;51.808;7.478;2023-02-01T15:17:19;101028.00;;;6.80
12854;BMP180;6495;51.808;7.478;2023-02-01T15:19:56;101031.00;;;6.70
12854;BMP180;6495;51.808;7.478;2023-02-01T15:22:25;101024.00;;;6.80
12854;BMP180;6495;51.808;7.478;2023-02-01T15:24:55;101019.00;;;6.80
12854;BMP180;6495;51.808;7.478;2023-02-01T15:27:25;101018.00;;;6.80
12854;BMP180;6495;51.808;7.478;2023-02-01T15:29:54;101007.00;;;6.90